Cubuk, Turkey
Current Conditions -  °F | °C
As of 1:20 AM on Monday 24 Nov 2014 (Local Time) from LTAC Reporting Station
Scattered Clouds Scattered Clouds  
Wind Chill: 33°   Ceiling: Unl
Heat Index: 39°   Visibility: 6mi
Dew Point: 34°   Wind: 9mph
Humidity: 81%   Direction: 10°N
Pressure: 30.12"   Gusts: NA
Location:  40.98°N, 32.08°E
Report Text: LTAC 232220Z 01008KT 9999 FEW040 SCT100 04/01 Q1020 NOSIG
Loading
Personal Weather Stations






























Interactive Weather Map New forecast layout! Learn more

10-Day Weather Forecast

Advertisements
Track Severe Weather on mobile